Time;durP1;ratioP1;P1;durP2;ratioP2;P2;SDS_P1;SDS_P2;PMS_P1;PMS_P2;Temp;Humidity;BMP_temperature;BMP_pressure;BME280_temperature;BME280_humidity;BME280_pressure;Samples;Min_cycle;Max_cycle;Signal;HPM_P1;HPM_P2
2023/07/18 00:01:24;;;;;;;;;;;14.90;99.90;;;;;;5135600;27;19911;-42
2023/07/18 00:03:49;;;;;;;;;;;14.90;99.90;;;;;;5140968;27;19923;-42
2023/07/18 00:06:17;;;;;;;;;;;14.90;99.90;;;;;;5155962;27;19980;-44
2023/07/18 00:08:44;;;;;;;;;;;14.90;99.90;;;;;;5156172;27;19934;-44
2023/07/18 00:11:09;;;;;;;;;;;14.80;99.90;;;;;;5155003;27;19915;-44
2023/07/18 00:13:35;;;;;;;;;;;14.80;99.90;;;;;;5155944;27;19930;-42
2023/07/18 00:16:01;;;;;;;;;;;14.70;99.90;;;;;;5155732;27;19969;-43
2023/07/18 00:18:26;;;;;;;;;;;14.70;99.90;;;;;;5155101;27;19914;-43
2023/07/18 00:20:52;;;;;;;;;;;14.70;99.90;;;;;;5155689;27;19914;-43
2023/07/18 00:23:17;;;;;;;;;;;14.60;99.90;;;;;;5155753;27;19907;-43
2023/07/18 00:25:43;;;;;;;;;;;14.60;99.90;;;;;;5154999;27;19972;-43
2023/07/18 00:28:09;;;;;;;;;;;14.60;99.90;;;;;;5154715;27;19914;-43
2023/07/18 00:30:34;;;;;;;;;;;14.50;99.90;;;;;;5155501;27;20312;-43
2023/07/18 00:33:00;;;;;;;;;;;14.50;99.90;;;;;;5154795;27;19922;-43
2023/07/18 00:35:27;;;;;;;;;;;14.50;99.90;;;;;;5135973;27;19937;-44
2023/07/18 00:37:52;;;;;;;;;;;14.50;99.90;;;;;;5133885;27;20350;-43
2023/07/18 00:40:18;;;;;;;;;;;14.40;99.90;;;;;;5134394;27;19920;-43
2023/07/18 00:42:45;;;;;;;;;;;14.50;99.90;;;;;;5134669;27;19935;-44
2023/07/18 00:45:11;;;;;;;;;;;14.40;99.90;;;;;;5133821;27;19908;-43
2023/07/18 00:47:40;;;;;;;;;;;14.40;99.90;;;;;;5134413;27;19964;-42
2023/07/18 00:50:10;;;;;;;;;;;14.40;99.90;;;;;;5134394;27;19919;-43
2023/07/18 00:52:37;;;;;;;;;;;14.40;99.90;;;;;;5133702;27;19915;-44
2023/07/18 00:55:03;;;;;;;;;;;14.40;99.90;;;;;;5134433;27;19908;-43
2023/07/18 00:57:29;;;;;;;;;;;14.30;99.90;;;;;;5134568;27;19907;-44
2023/07/18 00:59:55;;;;;;;;;;;14.30;99.90;;;;;;5133447;27;19907;-43
2023/07/18 01:02:21;;;;;;;;;;;14.30;99.90;;;;;;5115912;27;19973;-43
2023/07/18 01:04:47;;;;;;;;;;;14.20;99.90;;;;;;5147510;27;19919;-43
2023/07/18 01:07:12;;;;;;;;;;;14.20;99.90;;;;;;5153856;27;19911;-43
2023/07/18 01:09:38;;;;;;;;;;;14.20;99.90;;;;;;5154969;27;20346;-42
2023/07/18 01:12:03;;;;;;;;;;;14.10;99.90;;;;;;5154718;27;19936;-44
2023/07/18 01:14:30;;;;;;;;;;;14.10;99.90;;;;;;5154080;27;19915;-44
2023/07/18 01:16:55;;;;;;;;;;;14.00;99.90;;;;;;5152880;27;19918;-45
2023/07/18 01:19:21;;;;;;;;;;;14.10;99.90;;;;;;5154828;27;19907;-43
2023/07/18 01:21:47;;;;;;;;;;;14.00;99.90;;;;;;5153950;27;19968;-42
2023/07/18 01:24:12;;;;;;;;;;;14.10;99.90;;;;;;5154694;27;20018;-43
2023/07/18 01:26:38;;;;;;;;;;;14.00;99.90;;;;;;5154759;27;19911;-43
2023/07/18 01:29:04;;;;;;;;;;;14.00;99.90;;;;;;5153798;27;19907;-43
2023/07/18 01:31:30;;;;;;;;;;;14.00;99.90;;;;;;5154437;27;20018;-43
2023/07/18 01:33:56;;;;;;;;;;;14.00;99.90;;;;;;5154501;27;20385;-46
2023/07/18 01:36:22;;;;;;;;;;;14.00;99.90;;;;;;5153868;27;19907;-45
2023/07/18 01:38:48;;;;;;;;;;;14.00;99.90;;;;;;5154290;27;19907;-43
2023/07/18 01:41:13;;;;;;;;;;;14.00;99.90;;;;;;5136739;27;19919;-43
2023/07/18 01:43:38;;;;;;;;;;;14.00;99.90;;;;;;5133778;27;19914;-43
2023/07/18 01:46:04;;;;;;;;;;;14.00;99.90;;;;;;5134696;27;20315;-43
2023/07/18 01:48:29;;;;;;;;;;;14.00;99.90;;;;;;5153668;27;19914;-43
2023/07/18 01:50:56;;;;;;;;;;;14.00;99.90;;;;;;5154213;27;19922;-43
2023/07/18 01:53:22;;;;;;;;;;;14.00;99.90;;;;;;5154458;27;19915;-43
2023/07/18 01:55:47;;;;;;;;;;;14.00;99.90;;;;;;5153140;27;19911;-43
2023/07/18 01:58:12;;;;;;;;;;;14.00;99.90;;;;;;5154349;27;20002;-43
2023/07/18 02:00:38;;;;;;;;;;;14.00;99.90;;;;;;5154270;27;19930;-44
2023/07/18 02:03:05;;;;;;;;;;;14.10;99.90;;;;;;5153431;27;19956;-44
2023/07/18 02:05:32;;;;;;;;;;;14.00;99.90;;;;;;5154344;27;19914;-43
2023/07/18 02:07:57;;;;;;;;;;;14.00;99.90;;;;;;5154097;27;19911;-43
2023/07/18 02:10:23;;;;;;;;;;;14.00;99.90;;;;;;5153382;27;19938;-45
2023/07/18 02:12:50;;;;;;;;;;;14.00;99.90;;;;;;5154085;27;19907;-43
2023/07/18 02:15:15;;;;;;;;;;;14.00;99.90;;;;;;5154116;27;19914;-45
2023/07/18 02:17:42;;;;;;;;;;;14.00;99.90;;;;;;5138402;27;19911;-43
2023/07/18 02:20:09;;;;;;;;;;;14.00;99.90;;;;;;5133420;28;20298;-47
2023/07/18 02:22:35;;;;;;;;;;;14.00;99.90;;;;;;5133317;28;19908;-43
2023/07/18 02:25:02;;;;;;;;;;;13.90;99.90;;;;;;5132547;28;19914;-43
2023/07/18 02:27:27;;;;;;;;;;;13.90;99.90;;;;;;5133396;28;19919;-43
2023/07/18 02:29:53;;;;;;;;;;;13.90;99.90;;;;;;5133230;28;19907;-43
2023/07/18 02:32:18;;;;;;;;;;;13.90;99.90;;;;;;5132548;28;20018;-44
2023/07/18 02:34:44;;;;;;;;;;;13.90;99.90;;;;;;5133258;28;19907;-44
2023/07/18 02:37:10;;;;;;;;;;;13.90;99.90;;;;;;5133204;28;19961;-44
2023/07/18 02:39:35;;;;;;;;;;;13.90;99.90;;;;;;5132520;28;20014;-43
2023/07/18 02:42:02;;;;;;;;;;;13.90;99.90;;;;;;5132935;28;19977;-44
2023/07/18 02:44:28;;;;;;;;;;;13.90;99.90;;;;;;5132365;28;19915;-45
2023/07/18 02:46:53;;;;;;;;;;;13.90;99.90;;;;;;5133035;27;19912;-43
2023/07/18 02:49:19;;;;;;;;;;;13.90;99.90;;;;;;5133049;27;20365;-43
2023/07/18 02:51:44;;;;;;;;;;;13.90;99.90;;;;;;5135391;27;19971;-45
2023/07/18 02:54:10;;;;;;;;;;;13.80;99.90;;;;;;5136688;27;19960;-43
2023/07/18 02:56:35;;;;;;;;;;;13.80;99.90;;;;;;5136837;27;19977;-43
2023/07/18 02:59:01;;;;;;;;;;;13.80;99.90;;;;;;5135787;27;20292;-43
2023/07/18 03:01:27;;;;;;;;;;;13.80;99.90;;;;;;5136629;27;19963;-43
2023/07/18 03:03:54;;;;;;;;;;;13.80;99.90;;;;;;5136583;27;20468;-42
2023/07/18 03:06:20;;;;;;;;;;;13.70;99.90;;;;;;5135739;27;19914;-44
2023/07/18 03:08:45;;;;;;;;;;;13.70;99.90;;;;;;5136525;27;20278;-43
2023/07/18 03:11:11;;;;;;;;;;;13.70;99.90;;;;;;5136354;27;19916;-44
2023/07/18 03:13:36;;;;;;;;;;;13.70;99.90;;;;;;5135661;27;19934;-43
2023/07/18 03:16:04;;;;;;;;;;;13.70;99.90;;;;;;5136262;27;19908;-43
2023/07/18 03:18:30;;;;;;;;;;;13.60;99.90;;;;;;5115735;28;19953;-44
2023/07/18 03:20:55;;;;;;;;;;;13.60;99.90;;;;;;5114835;28;19908;-43
2023/07/18 03:23:21;;;;;;;;;;;13.60;99.90;;;;;;5115792;28;20282;-43
2023/07/18 03:25:47;;;;;;;;;;;13.60;99.90;;;;;;5115649;28;19916;-43
2023/07/18 03:28:12;;;;;;;;;;;13.60;99.90;;;;;;5114804;28;19994;-43
2023/07/18 03:30:40;;;;;;;;;;;13.60;99.90;;;;;;5115491;28;20278;-43
2023/07/18 03:33:06;;;;;;;;;;;13.60;99.90;;;;;;5115449;28;19914;-42
2023/07/18 03:35:32;;;;;;;;;;;13.50;99.90;;;;;;5114745;28;19959;-45
2023/07/18 03:37:58;;;;;;;;;;;13.50;99.90;;;;;;5115235;28;20342;-44
2023/07/18 03:40:23;;;;;;;;;;;13.50;99.90;;;;;;5115140;28;19920;-45
2023/07/18 03:42:50;;;;;;;;;;;13.50;99.90;;;;;;5113668;28;20219;-43
2023/07/18 03:45:16;;;;;;;;;;;13.40;99.90;;;;;;5115378;28;20379;-42
2023/07/18 03:47:42;;;;;;;;;;;13.40;99.90;;;;;;5140579;27;19908;-44
2023/07/18 03:50:09;;;;;;;;;;;13.40;99.90;;;;;;5156334;27;19915;-42
2023/07/18 03:52:35;;;;;;;;;;;13.40;99.90;;;;;;5156394;27;19918;-44
2023/07/18 03:55:00;;;;;;;;;;;13.40;99.90;;;;;;5155181;27;19911;-45
2023/07/18 03:57:27;;;;;;;;;;;13.40;99.90;;;;;;5155914;27;19911;-43
2023/07/18 03:59:52;;;;;;;;;;;13.40;99.90;;;;;;5122288;27;19912;-42
2023/07/18 04:02:18;;;;;;;;;;;13.40;99.90;;;;;;5134596;27;19918;-42
2023/07/18 04:04:43;;;;;;;;;;;13.40;99.90;;;;;;5135244;27;20427;-43
2023/07/18 04:07:09;;;;;;;;;;;13.40;99.90;;;;;;5135270;27;19911;-43
2023/07/18 04:09:34;;;;;;;;;;;13.40;99.90;;;;;;5134612;27;19907;-43
2023/07/18 04:12:00;;;;;;;;;;;13.40;99.90;;;;;;5135109;27;20379;-42
2023/07/18 04:14:25;;;;;;;;;;;13.40;99.90;;;;;;5135208;27;19908;-42
2023/07/18 04:16:51;;;;;;;;;;;13.40;99.90;;;;;;5139755;27;19907;-43
2023/07/18 04:19:16;;;;;;;;;;;13.40;99.90;;;;;;5156034;27;20376;-43
2023/07/18 04:21:42;;;;;;;;;;;13.40;99.90;;;;;;5150212;27;19907;-43
2023/07/18 04:24:08;;;;;;;;;;;13.50;99.90;;;;;;5134254;27;19961;-45
2023/07/18 04:26:34;;;;;;;;;;;13.60;99.90;;;;;;5135028;27;19915;-44
2023/07/18 04:29:00;;;;;;;;;;;13.60;99.90;;;;;;5118595;27;19908;-43
2023/07/18 04:31:25;;;;;;;;;;;13.60;99.90;;;;;;5113617;28;19951;-42
2023/07/18 04:33:51;;;;;;;;;;;13.60;99.90;;;;;;5114250;28;19907;-43
2023/07/18 04:36:16;;;;;;;;;;;13.60;99.90;;;;;;5114328;28;19908;-42
2023/07/18 04:38:42;;;;;;;;;;;13.60;99.90;;;;;;5113573;28;19914;-42
2023/07/18 04:41:07;;;;;;;;;;;13.60;99.90;;;;;;5113899;28;19928;-43
2023/07/18 04:43:33;;;;;;;;;;;13.70;99.90;;;;;;5114126;28;19912;-44
2023/07/18 04:45:58;;;;;;;;;;;13.70;99.90;;;;;;5113272;28;20285;-43
2023/07/18 04:48:24;;;;;;;;;;;13.70;99.90;;;;;;5130695;27;19911;-45
2023/07/18 04:50:55;;;;;;;;;;;13.80;99.90;;;;;;5155142;27;20052;-42
2023/07/18 04:53:21;;;;;;;;;;;13.80;99.90;;;;;;5154895;27;19915;-43
2023/07/18 04:55:50;;;;;;;;;;;13.80;99.90;;;;;;5154754;27;19911;-43
2023/07/18 04:58:15;;;;;;;;;;;13.90;99.90;;;;;;5154416;27;19911;-43
2023/07/18 05:00:41;;;;;;;;;;;13.90;99.90;;;;;;5155101;27;19907;-43
2023/07/18 05:03:07;;;;;;;;;;;13.90;99.90;;;;;;5155057;27;19983;-43
2023/07/18 05:05:32;;;;;;;;;;;13.90;99.90;;;;;;5154439;27;19952;-42
2023/07/18 05:07:59;;;;;;;;;;;13.90;99.90;;;;;;5154973;27;20012;-43
2023/07/18 05:10:24;;;;;;;;;;;13.90;99.90;;;;;;5154818;27;19919;-44
2023/07/18 05:12:51;;;;;;;;;;;13.90;99.90;;;;;;5153722;27;19907;-43
2023/07/18 05:15:17;;;;;;;;;;;14.00;99.90;;;;;;5154802;27;20346;-43
2023/07/18 05:17:42;;;;;;;;;;;14.00;99.90;;;;;;5153851;27;19907;-45
2023/07/18 05:20:10;;;;;;;;;;;14.00;99.90;;;;;;5133509;27;19957;-42
2023/07/18 05:22:37;;;;;;;;;;;14.10;99.90;;;;;;5125466;27;19952;-44
2023/07/18 05:25:04;;;;;;;;;;;14.10;99.90;;;;;;5117514;27;19995;-42
2023/07/18 05:27:30;;;;;;;;;;;14.20;99.90;;;;;;5125441;27;20002;-42
2023/07/18 05:29:56;;;;;;;;;;;14.20;99.90;;;;;;5112995;28;19946;-45
2023/07/18 05:32:22;;;;;;;;;;;14.30;99.90;;;;;;5114639;28;19916;-43
2023/07/18 05:34:47;;;;;;;;;;;14.40;99.90;;;;;;5134022;27;20418;-42
2023/07/18 05:37:13;;;;;;;;;;;14.50;99.90;;;;;;5132873;27;19960;-43
2023/07/18 05:39:39;;;;;;;;;;;14.50;99.90;;;;;;5132334;27;20354;-43
2023/07/18 05:42:04;;;;;;;;;;;14.50;99.90;;;;;;5131151;27;19927;-43
2023/07/18 05:44:30;;;;;;;;;;;14.60;99.90;;;;;;5132899;27;20281;-43
2023/07/18 05:46:56;;;;;;;;;;;14.60;99.90;;;;;;5131654;28;19911;-42
2023/07/18 05:49:21;;;;;;;;;;;14.70;99.90;;;;;;5129067;28;19911;-44
2023/07/18 05:51:47;;;;;;;;;;;14.70;99.90;;;;;;5131432;27;20378;-44
2023/07/18 05:54:12;;;;;;;;;;;14.80;99.90;;;;;;5131233;28;19916;-43
2023/07/18 05:56:38;;;;;;;;;;;14.80;99.90;;;;;;5132935;27;19965;-44
2023/07/18 05:59:06;;;;;;;;;;;14.90;99.90;;;;;;5114046;28;20419;-43
2023/07/18 06:01:32;;;;;;;;;;;15.00;99.90;;;;;;5112214;28;19914;-45
2023/07/18 06:03:58;;;;;;;;;;;15.10;99.90;;;;;;5132485;28;19911;-43
2023/07/18 06:06:24;;;;;;;;;;;15.20;99.90;;;;;;5133452;28;19908;-43
2023/07/18 06:08:49;;;;;;;;;;;15.30;99.90;;;;;;5132664;27;19926;-43
2023/07/18 06:11:14;;;;;;;;;;;15.30;99.90;;;;;;5133414;28;20362;-43
2023/07/18 06:13:41;;;;;;;;;;;15.40;99.90;;;;;;5130011;27;19911;-42
2023/07/18 06:16:07;;;;;;;;;;;15.50;99.90;;;;;;5138411;27;19911;-42
2023/07/18 06:18:32;;;;;;;;;;;15.50;99.90;;;;;;5147189;27;19912;-43
2023/07/18 06:20:58;;;;;;;;;;;15.70;99.90;;;;;;5133355;28;19915;-43
2023/07/18 06:23:23;;;;;;;;;;;15.70;99.90;;;;;;5132385;28;19908;-45
2023/07/18 06:25:49;;;;;;;;;;;15.80;99.90;;;;;;5134615;27;20400;-44
2023/07/18 06:28:14;;;;;;;;;;;15.90;99.90;;;;;;5134588;27;19911;-44
2023/07/18 06:30:39;;;;;;;;;;;15.90;99.90;;;;;;5129343;27;20381;-42
2023/07/18 06:33:05;;;;;;;;;;;15.90;99.90;;;;;;5138790;27;19911;-43
2023/07/18 06:35:32;;;;;;;;;;;15.90;99.90;;;;;;5142819;27;19911;-43
2023/07/18 06:37:57;;;;;;;;;;;16.00;99.90;;;;;;5136466;27;19922;-44
2023/07/18 06:40:23;;;;;;;;;;;16.00;99.90;;;;;;5139106;27;20018;-43
2023/07/18 06:42:48;;;;;;;;;;;15.90;99.90;;;;;;5136425;27;19907;-43
2023/07/18 06:45:14;;;;;;;;;;;16.00;99.90;;;;;;5136681;27;19907;-42
2023/07/18 06:47:40;;;;;;;;;;;16.10;99.90;;;;;;5128205;27;19912;-43
2023/07/18 06:50:05;;;;;;;;;;;16.20;99.90;;;;;;5135576;27;20350;-43
2023/07/18 06:52:31;;;;;;;;;;;16.30;99.90;;;;;;5135470;27;19953;-42
2023/07/18 06:54:56;;;;;;;;;;;16.40;99.90;;;;;;5137630;27;20093;-42
2023/07/18 06:57:22;;;;;;;;;;;16.60;99.90;;;;;;5136160;27;19915;-44
2023/07/18 06:59:47;;;;;;;;;;;16.60;99.90;;;;;;5136448;27;19974;-44
2023/07/18 07:02:13;;;;;;;;;;;16.80;99.90;;;;;;5134717;27;19918;-43
2023/07/18 07:04:39;;;;;;;;;;;16.80;99.90;;;;;;5134148;27;20285;-43
2023/07/18 07:07:05;;;;;;;;;;;16.90;99.90;;;;;;5156407;27;20270;-43
2023/07/18 07:09:31;;;;;;;;;;;17.00;99.90;;;;;;5157144;27;19945;-43
2023/07/18 07:11:56;;;;;;;;;;;17.00;99.90;;;;;;5156446;27;19958;-43
2023/07/18 07:14:22;;;;;;;;;;;17.00;99.90;;;;;;5126685;27;20002;-43
2023/07/18 07:16:47;;;;;;;;;;;17.10;99.90;;;;;;5131122;27;19912;-44
2023/07/18 07:19:13;;;;;;;;;;;17.10;99.90;;;;;;5115019;28;20321;-44
2023/07/18 07:21:39;;;;;;;;;;;17.20;99.90;;;;;;5123526;27;19912;-43
2023/07/18 07:24:04;;;;;;;;;;;17.30;99.90;;;;;;5120559;27;19938;-43
2023/07/18 07:26:30;;;;;;;;;;;17.30;99.90;;;;;;5130685;27;19964;-42
2023/07/18 07:28:56;;;;;;;;;;;17.30;99.90;;;;;;5132182;27;19911;-44
2023/07/18 07:31:21;;;;;;;;;;;17.30;99.90;;;;;;5136160;27;19923;-43
2023/07/18 07:33:47;;;;;;;;;;;17.30;99.90;;;;;;5120379;27;20366;-43
2023/07/18 07:36:12;;;;;;;;;;;17.30;99.90;;;;;;5127655;27;19911;-44
2023/07/18 07:38:38;;;;;;;;;;;17.30;99.90;;;;;;5135186;27;20243;-44
2023/07/18 07:41:04;;;;;;;;;;;17.30;99.90;;;;;;5127145;27;19939;-44
2023/07/18 07:43:29;;;;;;;;;;;17.40;99.90;;;;;;5123075;27;19918;-45
2023/07/18 07:45:55;;;;;;;;;;;17.50;99.90;;;;;;5124875;27;20340;-42
2023/07/18 07:48:21;;;;;;;;;;;17.60;99.90;;;;;;5118237;27;19964;-43
2023/07/18 07:50:48;;;;;;;;;;;17.70;99.90;;;;;;5130902;27;19974;-42
2023/07/18 07:53:14;;;;;;;;;;;17.70;99.90;;;;;;5121184;27;19912;-42
2023/07/18 07:55:39;;;;;;;;;;;17.80;99.90;;;;;;5135336;27;19914;-42
2023/07/18 07:58:05;;;;;;;;;;;17.90;99.90;;;;;;5134691;27;19908;-43
2023/07/18 08:00:30;;;;;;;;;;;18.20;99.90;;;;;;5134679;27;19998;-44
2023/07/18 08:02:56;;;;;;;;;;;18.40;99.90;;;;;;5134558;27;19918;-43
2023/07/18 08:05:21;;;;;;;;;;;18.60;99.90;;;;;;5134268;27;19927;-42
2023/07/18 08:07:47;;;;;;;;;;;18.70;99.90;;;;;;5151931;27;19915;-44
2023/07/18 08:10:13;;;;;;;;;;;18.80;99.90;;;;;;5133936;27;20277;-43
2023/07/18 08:12:38;;;;;;;;;;;18.80;99.90;;;;;;5134398;27;20353;-43
2023/07/18 08:15:04;;;;;;;;;;;18.80;99.90;;;;;;5134560;27;19965;-43
2023/07/18 08:17:30;;;;;;;;;;;18.80;99.90;;;;;;5135239;27;19908;-42
2023/07/18 08:19:55;;;;;;;;;;;18.80;99.90;;;;;;5135170;27;19908;-42
2023/07/18 08:22:21;;;;;;;;;;;18.90;99.90;;;;;;5128581;27;19946;-42
2023/07/18 08:24:46;;;;;;;;;;;19.10;99.90;;;;;;5133847;27;19983;-42
2023/07/18 08:27:12;;;;;;;;;;;19.30;99.90;;;;;;5122634;27;19912;-43
2023/07/18 08:29:37;;;;;;;;;;;19.40;99.90;;;;;;5133757;27;19947;-42
2023/07/18 08:32:03;;;;;;;;;;;19.60;99.90;;;;;;5134270;27;19919;-44
2023/07/18 08:34:28;;;;;;;;;;;19.70;99.90;;;;;;5132885;27;19916;-42
2023/07/18 08:36:54;;;;;;;;;;;19.80;99.90;;;;;;5133492;27;19911;-44
2023/07/18 08:39:19;;;;;;;;;;;19.90;99.90;;;;;;5132535;27;19908;-43
2023/07/18 08:41:46;;;;;;;;;;;20.00;99.90;;;;;;5133350;27;20385;-42
2023/07/18 08:44:12;;;;;;;;;;;19.90;99.90;;;;;;5132906;27;19908;-44
2023/07/18 08:46:39;;;;;;;;;;;19.90;99.90;;;;;;5128084;27;19966;-43
2023/07/18 08:49:05;;;;;;;;;;;20.00;99.90;;;;;;5114957;27;19912;-43
2023/07/18 08:51:31;;;;;;;;;;;19.90;99.90;;;;;;5121709;27;19919;-43
2023/07/18 08:53:57;;;;;;;;;;;19.90;99.90;;;;;;5122087;27;19934;-43
2023/07/18 08:56:23;;;;;;;;;;;19.90;99.90;;;;;;5118769;27;20359;-43
2023/07/18 08:58:49;;;;;;;;;;;20.00;99.90;;;;;;5123327;27;19978;-44
2023/07/18 09:01:16;;;;;;;;;;;20.00;99.90;;;;;;5134287;27;20337;-43
2023/07/18 09:03:42;;;;;;;;;;;19.90;99.90;;;;;;5136667;27;19923;-43
2023/07/18 09:06:20;;;;;;;;;;;20.00;99.90;;;;;;5121674;27;19919;-44
2023/07/18 09:08:46;;;;;;;;;;;20.10;99.90;;;;;;5120836;27;20347;-45
2023/07/18 09:11:15;;;;;;;;;;;20.20;99.90;;;;;;5136002;27;19926;-43
2023/07/18 09:13:41;;;;;;;;;;;20.30;99.90;;;;;;5127745;27;19912;-42
2023/07/18 09:16:17;;;;;;;;;;;20.40;99.90;;;;;;5133426;27;19908;-43
2023/07/18 09:18:43;;;;;;;;;;;20.40;99.90;;;;;;5128106;27;19963;-45
2023/07/18 09:21:09;;;;;;;;;;;20.50;99.90;;;;;;5124298;27;19980;-43
2023/07/18 09:23:39;;;;;;;;;;;20.70;99.90;;;;;;5120086;27;19908;-42
2023/07/18 09:26:11;;;;;;;;;;;20.80;99.90;;;;;;5122233;27;19918;-43
2023/07/18 09:28:36;;;;;;;;;;;21.00;99.90;;;;;;5126697;27;19965;-43
2023/07/18 09:31:02;;;;;;;;;;;21.10;99.90;;;;;;5122384;27;19984;-42
2023/07/18 09:33:28;;;;;;;;;;;21.20;99.90;;;;;;5131936;27;19965;-43
2023/07/18 09:35:57;;;;;;;;;;;21.20;99.90;;;;;;5132735;27;19961;-43
2023/07/18 09:38:23;;;;;;;;;;;21.20;99.90;;;;;;5132743;27;19908;-43
2023/07/18 09:40:48;;;;;;;;;;;21.10;99.90;;;;;;5131549;27;20418;-43
2023/07/18 09:43:15;;;;;;;;;;;21.10;99.90;;;;;;5132267;27;19911;-42
2023/07/18 09:45:41;;;;;;;;;;;21.10;99.90;;;;;;5132558;27;19911;-43
2023/07/18 09:48:07;;;;;;;;;;;21.20;99.90;;;;;;5131436;28;19930;-43
2023/07/18 09:50:34;;;;;;;;;;;21.20;99.90;;;;;;5132364;28;19915;-42
2023/07/18 09:53:01;;;;;;;;;;;21.30;99.90;;;;;;5131806;28;19938;-44
2023/07/18 09:55:30;;;;;;;;;;;21.30;99.90;;;;;;5131355;28;20060;-43
2023/07/18 09:57:56;;;;;;;;;;;21.20;99.90;;;;;;5131474;28;20018;-42
2023/07/18 10:00:25;;;;;;;;;;;21.20;99.90;;;;;;5135010;27;20018;-42
2023/07/18 10:02:52;;;;;;;;;;;21.20;99.90;;;;;;5137128;27;20277;-43
2023/07/18 10:05:18;;;;;;;;;;;21.20;99.90;;;;;;5136605;27;20203;-42
2023/07/18 10:07:44;;;;;;;;;;;21.20;99.90;;;;;;5135916;27;20225;-45
2023/07/18 10:10:10;;;;;;;;;;;21.20;99.90;;;;;;5136234;27;19916;-44
2023/07/18 10:13:11;;;;;;;;;;;21.30;99.90;;;;;;5136463;27;20381;-43
2023/07/18 10:15:56;;;;;;;;;;;21.50;99.90;;;;;;5052285;28;19920;-42
2023/07/18 10:18:24;;;;;;;;;;;21.70;99.90;;;;;;5110786;28;20358;-43
2023/07/18 10:20:58;;;;;;;;;;;21.80;99.90;;;;;;5122493;27;20068;-43
2023/07/18 10:23:40;;;;;;;;;;;21.80;99.90;;;;;;5136775;27;19915;-43
2023/07/18 10:26:06;;;;;;;;;;;21.80;99.90;;;;;;5136597;27;19912;-44
2023/07/18 10:28:45;;;;;;;;;;;21.90;99.90;;;;;;5136734;27;19907;-45
2023/07/18 10:31:27;;;;;;;;;;;21.90;99.90;;;;;;5123210;27;19927;-45
2023/07/18 10:34:04;;;;;;;;;;;22.00;99.90;;;;;;5117227;28;20488;-44
2023/07/18 10:36:29;;;;;;;;;;;22.10;99.90;;;;;;5116899;28;19908;-43
2023/07/18 10:38:56;;;;;;;;;;;22.10;99.90;;;;;;5116836;28;19952;-43
2023/07/18 10:41:21;;;;;;;;;;;22.20;99.90;;;;;;5119635;27;19926;-43
2023/07/18 10:43:47;;;;;;;;;;;22.20;99.90;;;;;;5136219;27;19908;-43
2023/07/18 10:46:13;;;;;;;;;;;22.30;99.90;;;;;;5136986;27;20370;-42
2023/07/18 10:48:38;;;;;;;;;;;22.30;99.90;;;;;;5136995;27;19912;-42
2023/07/18 10:51:08;;;;;;;;;;;22.40;99.90;;;;;;5128131;27;19998;-42
2023/07/18 10:53:33;;;;;;;;;;;22.40;99.90;;;;;;5116394;28;19907;-44
2023/07/18 10:55:59;;;;;;;;;;;22.50;99.90;;;;;;5116394;27;19912;-43
2023/07/18 10:58:24;;;;;;;;;;;22.50;99.90;;;;;;5125858;27;20007;-44
2023/07/18 11:00:50;;;;;;;;;;;22.40;99.90;;;;;;5128283;27;20313;-44
2023/07/18 11:03:19;;;;;;;;;;;22.40;99.90;;;;;;5141488;27;19912;-42
2023/07/18 11:05:50;;;;;;;;;;;22.40;99.90;;;;;;5146172;27;20002;-44
2023/07/18 11:08:26;;;;;;;;;;;22.50;99.90;;;;;;5115941;28;19912;-43
2023/07/18 11:10:52;;;;;;;;;;;22.70;99.90;;;;;;5134756;27;19916;-43
2023/07/18 11:13:18;;;;;;;;;;;22.80;99.90;;;;;;5136355;27;19908;-42
2023/07/18 11:15:43;;;;;;;;;;;22.80;99.90;;;;;;5138899;27;19937;-43
2023/07/18 11:18:09;;;;;;;;;;;22.90;99.90;;;;;;5156088;27;20346;-42
2023/07/18 11:20:35;;;;;;;;;;;23.00;99.90;;;;;;5138522;27;19914;-42
2023/07/18 11:23:00;;;;;;;;;;;23.10;99.90;;;;;;5157002;27;19907;-42
2023/07/18 11:25:26;;;;;;;;;;;23.10;99.90;;;;;;5155676;27;20318;-42
2023/07/18 11:27:52;;;;;;;;;;;23.00;99.90;;;;;;5115538;28;19908;-43
2023/07/18 11:30:21;;;;;;;;;;;22.80;99.90;;;;;;5115577;28;19915;-42
2023/07/18 11:32:46;;;;;;;;;;;22.90;99.90;;;;;;5114939;28;19972;-43
2023/07/18 11:35:17;;;;;;;;;;;23.00;99.90;;;;;;5115427;28;20362;-43
2023/07/18 11:37:43;;;;;;;;;;;23.20;99.90;;;;;;5154187;27;19911;-41
2023/07/18 11:40:09;;;;;;;;;;;23.40;99.90;;;;;;5149681;27;21210;-43
2023/07/18 11:42:45;;;;;;;;;;;23.60;99.90;;;;;;5115532;28;19912;-43
2023/07/18 11:45:12;;;;;;;;;;;23.70;99.90;;;;;;5127965;27;19918;-45
2023/07/18 11:47:44;;;;;;;;;;;23.60;99.90;;;;;;5119583;27;19934;-44
2023/07/18 11:50:11;;;;;;;;;;;23.50;99.90;;;;;;5123178;27;20406;-43
2023/07/18 11:52:36;;;;;;;;;;;23.40;99.90;;;;;;5126823;27;19911;-43
2023/07/18 11:55:02;;;;;;;;;;;23.40;99.90;;;;;;5123327;27;20394;-43
2023/07/18 11:57:28;;;;;;;;;;;23.50;99.90;;;;;;5144418;27;19911;-44
2023/07/18 11:59:53;;;;;;;;;;;23.50;99.90;;;;;;5123332;27;20338;-44
2023/07/18 12:02:19;;;;;;;;;;;23.50;99.90;;;;;;5118029;27;19918;-43
2023/07/18 12:04:45;;;;;;;;;;;23.40;99.90;;;;;;5115522;28;20010;-44
2023/07/18 12:07:10;;;;;;;;;;;23.40;99.90;;;;;;5142545;27;19921;-44
2023/07/18 12:09:35;;;;;;;;;;;23.50;99.90;;;;;;5156524;27;20392;-43
2023/07/18 12:12:01;;;;;;;;;;;23.50;99.60;;;;;;5155967;27;19915;-43
2023/07/18 12:14:27;;;;;;;;;;;23.40;99.90;;;;;;5146740;27;20358;-43
2023/07/18 12:16:53;;;;;;;;;;;23.50;99.90;;;;;;5135897;27;19912;-43
2023/07/18 12:19:20;;;;;;;;;;;23.30;99.90;;;;;;5124652;27;20363;-43
2023/07/18 12:21:46;;;;;;;;;;;23.30;99.90;;;;;;5121772;27;19961;-43
2023/07/18 12:24:12;;;;;;;;;;;23.30;99.90;;;;;;5119220;27;19958;-43
2023/07/18 12:26:37;;;;;;;;;;;23.40;99.90;;;;;;5118782;27;19940;-43
2023/07/18 12:29:03;;;;;;;;;;;23.60;99.90;;;;;;5124209;27;20380;-43
2023/07/18 12:31:31;;;;;;;;;;;23.70;99.90;;;;;;5121106;27;19928;-43
2023/07/18 12:33:57;;;;;;;;;;;23.90;99.90;;;;;;5121554;27;19918;-45
2023/07/18 12:36:22;;;;;;;;;;;24.00;99.90;;;;;;5118382;27;19916;-45
2023/07/18 12:38:48;;;;;;;;;;;23.80;99.90;;;;;;5114282;28;19963;-43
2023/07/18 12:41:13;;;;;;;;;;;23.70;99.90;;;;;;5114350;27;19920;-44
2023/07/18 12:43:39;;;;;;;;;;;23.60;99.90;;;;;;5126115;27;19964;-45
2023/07/18 12:46:06;;;;;;;;;;;23.60;99.80;;;;;;5128202;27;19914;-44
2023/07/18 12:48:31;;;;;;;;;;;23.60;99.90;;;;;;5128632;27;19990;-45
2023/07/18 12:50:57;;;;;;;;;;;23.50;99.90;;;;;;5123723;27;19919;-43
2023/07/18 12:53:22;;;;;;;;;;;23.50;99.90;;;;;;5121098;27;19915;-44
2023/07/18 12:55:47;;;;;;;;;;;23.50;99.90;;;;;;5116996;27;20033;-42
2023/07/18 12:58:13;;;;;;;;;;;23.40;99.90;;;;;;5118988;27;20331;-43
2023/07/18 13:00:39;;;;;;;;;;;23.30;99.90;;;;;;5126197;27;19918;-43
2023/07/18 13:03:05;;;;;;;;;;;23.30;99.90;;;;;;5133929;27;19918;-43
2023/07/18 13:05:30;;;;;;;;;;;23.50;99.90;;;;;;5136193;27;19911;-44
2023/07/18 13:07:56;;;;;;;;;;;23.50;99.90;;;;;;5133299;27;20318;-44
2023/07/18 13:10:22;;;;;;;;;;;23.50;99.90;;;;;;5132033;27;19908;-43
2023/07/18 13:12:47;;;;;;;;;;;23.50;99.90;;;;;;5132999;27;20349;-43
2023/07/18 13:15:13;;;;;;;;;;;23.50;99.90;;;;;;5132720;27;20006;-44
2023/07/18 13:17:39;;;;;;;;;;;23.40;99.90;;;;;;5142263;27;19922;-44
2023/07/18 13:20:05;;;;;;;;;;;23.30;99.90;;;;;;5126868;27;20003;-43
2023/07/18 13:22:31;;;;;;;;;;;23.60;99.90;;;;;;5125859;27;19999;-43
2023/07/18 13:24:56;;;;;;;;;;;23.60;99.90;;;;;;5126300;27;19964;-42
2023/07/18 13:27:22;;;;;;;;;;;23.70;99.90;;;;;;5130759;27;20284;-44
2023/07/18 13:29:48;;;;;;;;;;;23.60;99.90;;;;;;5123183;27;19915;-43
2023/07/18 13:32:13;;;;;;;;;;;23.50;99.30;;;;;;5122236;27;19919;-43
2023/07/18 13:34:39;;;;;;;;;;;23.30;99.60;;;;;;5114975;28;19935;-45
2023/07/18 13:37:05;;;;;;;;;;;23.20;99.90;;;;;;5124574;27;19917;-44
2023/07/18 13:39:30;;;;;;;;;;;23.30;99.90;;;;;;5115823;27;19919;-44
2023/07/18 13:41:56;;;;;;;;;;;23.40;99.90;;;;;;5127477;27;19923;-43
2023/07/18 13:44:21;;;;;;;;;;;23.50;99.90;;;;;;5128145;27;20251;-44
2023/07/18 13:46:47;;;;;;;;;;;23.50;99.90;;;;;;5130001;27;20367;-43
2023/07/18 13:49:12;;;;;;;;;;;23.60;99.90;;;;;;5132325;28;19914;-43
2023/07/18 13:51:38;;;;;;;;;;;23.60;99.60;;;;;;5133465;28;19963;-44
2023/07/18 13:54:04;;;;;;;;;;;23.60;99.90;;;;;;5132894;28;19912;-42
2023/07/18 13:56:29;;;;;;;;;;;24.00;99.90;;;;;;5133758;28;20006;-43
2023/07/18 13:58:55;;;;;;;;;;;24.50;98.70;;;;;;5152993;27;19976;-45
2023/07/18 14:01:20;;;;;;;;;;;24.80;99.90;;;;;;5153647;27;19911;-44
2023/07/18 14:03:46;;;;;;;;;;;24.90;99.90;;;;;;5154333;27;20003;-42
2023/07/18 14:06:11;;;;;;;;;;;25.00;99.90;;;;;;5154272;27;19907;-43
2023/07/18 14:08:37;;;;;;;;;;;25.20;99.90;;;;;;5145474;27;19911;-42
2023/07/18 14:11:04;;;;;;;;;;;24.90;99.90;;;;;;5153821;27;20010;-42